TimeCET,TemperatureF,Dew PointF,Humidity,Sea Level PressureIn,VisibilityMPH,Wind Direction,Wind SpeedMPH,Gust SpeedMPH,PrecipitationIn,Events,Conditions,WindDirDegrees,DateUTC
12:55 AM,32.0,21.2,64,30.36,-9999.0,North,3.5,-,N/A,,Clear,360,2012-11-07 23:55:00
1:00 AM,32,21,52,,12,North,3.5,,,,,0,2012-11-08 00:00:00
4:00 AM,31,20,53,,31,ESE,6.9,,,,,110,2012-11-08 03:00:00
5:55 AM,30.2,21.2,69,30.30,-9999.0,ESE,5.8,-,N/A,,Clear,110,2012-11-08 04:55:00
6:55 AM,30.2,21.2,69,30.30,-9999.0,North,2.3,-,N/A,,Clear,360,2012-11-08 05:55:00
7:00 AM,30,21,58,,47,North,2.3,,,,Clear,0,2012-11-08 06:00:00
7:55 AM,30.2,21.2,69,30.30,-9999.0,North,2.3,-,N/A,,Clear,360,2012-11-08 06:55:00
8:55 AM,32.0,21.2,64,30.30,-9999.0,WNW,2.3,-,N/A,,Clear,290,2012-11-08 07:55:00
9:55 AM,35.6,21.2,56,30.30,-9999.0,NW,1.2,-,N/A,,Clear,320,2012-11-08 08:55:00
10:00 AM,36,21,41,,47,NW,1.2,,,,Clear,320,2012-11-08 09:00:00
10:55 AM,37.4,21.2,52,30.30,-9999.0,ESE,9.2,-,N/A,,Clear,120,2012-11-08 09:55:00
11:55 AM,37.4,21.2,52,30.30,-9999.0,SE,5.8,-,N/A,,Clear,130,2012-11-08 10:55:00
12:55 PM,39.2,23.0,52,30.30,-9999.0,SW,3.5,-,N/A,,Clear,230,2012-11-08 11:55:00
1:00 PM,38,22,40,,47,SW,3.5,,,,Clear,230,2012-11-08 12:00:00
1:55 PM,39.2,23.0,52,30.27,-9999.0,SW,2.3,-,N/A,,Clear,230,2012-11-08 12:55:00
2:55 PM,39.2,23.0,52,30.21,-9999.0,ESE,3.5,-,N/A,,Clear,120,2012-11-08 13:55:00
3:55 PM,35.6,24.8,65,30.21,-9999.0,SSE,4.6,-,N/A,,Clear,150,2012-11-08 14:55:00
4:00 PM,36,24,51,,44,SSE,4.6,,,,Mostly Cloudy,150,2012-11-08 15:00:00
4:55 PM,33.8,23.0,65,30.18,-9999.0,ESE,3.5,-,N/A,,Clear,120,2012-11-08 15:55:00
5:55 PM,32.0,24.8,75,30.18,-9999.0,East,1.2,-,N/A,,Clear,100,2012-11-08 16:55:00
6:55 PM,33.8,24.8,70,30.18,-9999.0,WNW,3.5,-,N/A,,Clear,290,2012-11-08 17:55:00
7:00 PM,34,24,57,,12,WNW,3.5,,,,Clear,290,2012-11-08 18:00:00
9:55 PM,30.2,23.0,75,30.15,-9999.0,NNW,6.9,-,N/A,,Clear,330,2012-11-08 20:55:00
10:00 PM,31,23,63,,12,NNW,6.9,,,,Clear,330,2012-11-08 21:00:00